Dalmatia, PA (17017)

3:31 AM EDT on May 26, 2015 (GMT -0400)
Rabbit Hill | Change Station
CLOSE
Current Station
Personal Weather Station
Location: Millersburg, PA
Elevation: 421 ft
Nearby Weather Stations

Elev 421 ft 40.54 °N, 76.94 °W | Updated 4 minutes ago

Clear
Clear
69.8 °F
Feels Like 69.8 °F
N
1.0
Wind Variable Wind from SW
Gusts 2.0 mph

Today
High -- | Low -- °F
--% Chance of Precip.
Yesterday
High -- | Low -- °F
Precip. -- in
5:42 AM 8:27 PM
First Quarter, 56% visible
Pressure 30.15 in
Visibility 10.0 miles
Clouds Clear
Dew Point 60 °F
Humidity 71%
Rainfall 0.00 in
Snow Depth Not available.
UV 0 out of 12
Pollen 9.20 out of 12
Air Quality Not available.
Flu Activity Sporadic
METAR KSEG 260653Z AUTO 19004KT 10SM CLR 20/14 A3016 RMK AO2 SLP209 T02000144

More Conditions Fewer Conditions

Pressure 30.15 in
Visibility 10.0 miles
Clouds Clear
Dew Point 60 °F
Humidity 71%
Rainfall 0.00 in
Snow Depth Not available.
UV 0 out of 12
Pollen 9.20 out of 12
Air Quality Not available.
Flu Activity Sporadic
METAR KSEG 260653Z AUTO 19004KT 10SM CLR 20/14 A3016 RMK AO2 SLP209 T02000144

More Conditions Fewer Conditions

10-Day Weather Forecast

Almanac

Astronomy

May. 26, 2015 Rise Set
Actual Time 5:42 AM EDT 8:27 PM EDT
Civil Twilight 5:10 AM EDT 8:59 PM EDT
Nautical Twilight 4:29 AM EDT 9:39 PM EDT
Astronomical Twilight 3:43 AM EDT 10:26 PM EDT
Moon 1:46 PM EDT 1:55 AM EDT
Length of Visible Light 15h 49m
Length of Day
14h 45m
Tomorrow will be 1m 26s longer.
First Quarter, 56% of the Moon is Illuminated
Today
First Quarter
Jun 2
Full
Jun 9
Last Quarter
Jun 16
New
Jun 24
First Quarter

Today's Extremes

State Highs State Lows

Community

WunderPhotos

Upload Photos

1,824,302 photos uploaded!

Nearby

Snow Depth

Station Depth Elevation
No new snow has been reported.

Earthquake Activity

City Distance Mag. Time & Date
No recent earthquake activity has been reported nearby.
Minimum magnitude displayed is 2.5.

Coastal Water Temperatures

Place Temperature
No Stations Reporting

Nearby Weather Stations